Terminal Aerodrome Forecast
Issued by NWS

Home | Current Version | Previous Version | Text Only | Print | Product List | Glossary On
Versions: 1 2 3 4 5 6 7 8 9 10 11 12 13 14 15 16 17 18 19 20 21 22 23 24 25 26
268
FTUS43 KEAX 202324
TAFSTJ
TAF
KSTJ 202324Z 2100/2124 30012KT P6SM FEW050
     FM210300 34007KT P6SM SCT045
     FM211700 32006KT P6SM SKC=

USA.gov is the U.S. government's official web portal to all federal, state and local government web resources and services.